Flight Track Log - Related Links

Times and Time Zones

All times are in EDT time to prevent confusion due to time zone crossing. See the JBU1741 flight status page for this flight to view local times or setup timezone preferences in your user account.

Time Position Orientation Groundspeed Altitude Reporting Facility
EDT Latitude Longitude Course Direction KTS MPH feet Rate Location/Type
Tue 10:28:27 AM 18.4333 -65.9667 276° West 150 173 1,100  Level San Juan Center
Tue 10:29:27 AM 18.4833 -65.9833 342° North 210 242 2,200 1,850 Climbing San Juan Center
Tue 10:30:27 AM 18.5000 -66.0500 285° West 250 288 4,800 2,430 Climbing San Juan Center
Tue 10:31:00 AM 18.4500 -66.3733 270° West  Level FlightAware Approximate
Tue 10:31:28 AM 18.4833 -66.1167 255° West 280 322 7,100  Level San Juan Center
Tue 10:32:00 AM 18.4534 -66.4669 276° West  Level FlightAware Approximate
Tue 10:32:28 AM 18.4667 -66.2000 258° West 290 334 10,000  Level San Juan Center
Tue 10:33:00 AM 18.4627 -66.5602 276° West  Level FlightAware Approximate
Tue 10:33:28 AM 18.4500 -66.3000 260° West 340 391 11,300  Level San Juan Center
Tue 10:34:29 AM 18.4667 -66.4000 280° West 350 403 13,500 2,331 Climbing San Juan Center
Tue 10:35:29 AM 18.4667 -66.5167 270° West 360 414 16,000 2,300 Climbing San Juan Center
Tue 10:36:29 AM 18.4667 -66.6167 270° West 380 437 18,100 2,050 Climbing San Juan Center
Tue 10:37:29 AM 18.4667 -66.7333 270° West 380 437 20,100 1,835 Climbing San Juan Center
Tue 10:38:30 AM 18.4833 -66.8500 279° West 380 437 21,800 1,785 Climbing San Juan Center
Tue 10:39:30 AM 18.4833 -66.9667 270° West 390 449 23,700 1,100 Climbing San Juan Center
Tue 10:40:30 AM 18.4833 -67.0500 270° West 400 460 24,000 149 Climbing San Juan Center
Tue 10:41:31 AM 18.4833 -67.2000 270° West 400 460 24,000  Level San Juan Center
Tue 10:42:31 AM 18.4833 -67.3167 270° West 400 460 24,000  Level San Juan Center
Tue 10:43:31 AM 18.4833 -67.4333 270° West 400 460 24,000  Level San Juan Center
Tue 10:44:32 AM 18.4833 -67.5500 270° West 400 460 24,000  Level San Juan Center
Tue 10:45:32 AM 18.4833 -67.6667 270° West 400 460 24,000  Level San Juan Center
Tue 10:46:32 AM 18.4667 -67.7833 261° West 390 449 24,000  Level San Juan Center
Tue 10:47:33 AM 18.4667 -67.9000 270° West 390 449 24,000  Level San Juan Center
Tue 10:49:00 AM 18.4667 -68.0359 270° West  Level FlightAware Approximate
Tue 10:56:00 AM 18.4547 -68.6923 268° West  Level FlightAware Approximate
Tue 10:57:00 AM 18.4512 -68.7860 268° West  Level FlightAware Approximate
Tue 10:58:00 AM 18.4500 -68.8798 270° West  Level FlightAware Approximate
Tue 10:59:00 AM 18.4500 -68.9735 270° West  Level FlightAware Approximate
Tue 11:00:00 AM 18.4449 -69.0671 265° West  Level FlightAware Approximate
Tue 11:01:00 AM 18.4377 -69.1606 265° West  Level FlightAware Approximate
Tue 11:02:00 AM 18.4333 -69.2542 270° West  Level FlightAware Approximate
Tue 11:03:00 AM 18.4333 -69.3480 270° West  Level FlightAware Approximate
Tue 11:04:00 AM 18.4333 -69.4418 270° West  Level FlightAware Approximate
Tue 11:05:00 AM 18.4333 -69.5356 270° West  Level FlightAware Approximate
Tue 11:06:00 AM 18.4211 -69.6280 258° West  Level FlightAware Approximate
Tue 11:07:00 AM 18.4167 -69.6500 258° West  Level FlightAware Approximate
Tue 11:08:00 AM 18.4297 -69.6689 258° West  Level Estimated
Tue 11:09:00 AM 18.4297 -69.6689 258° West  Level Estimated
Tue 11:10:00 AM 18.4297 -69.6689 258° West  Level Estimated
Tue 11:11:00 AM 18.4297 -69.6689 258° West  Level Estimated
Tue 11:12:00 AM 18.4297 -69.6689 258° West  Level Estimated
Tue 11:13:00 AM 18.4297 -69.6689 258° West  Level Estimated
Tue 11:14:00 AM 18.4297 -69.6689 258° West  Level Estimated
Tue 11:15:00 AM 18.4297 -69.6689 258° West  Level Estimated
Tue 11:16:00 AM 18.4297 -69.6689 258° West  Level Estimated

Login

Don't have an account? Register now (free) for customized features, flight alerts, and more!